createdAt,value
2022-12-06T00:00:34.620Z,1011.23
2022-12-06T00:01:34.586Z,1011.22
2022-12-06T00:02:34.710Z,1011.21
2022-12-06T00:03:34.610Z,1011.25
2022-12-06T00:04:34.498Z,1011.19
2022-12-06T00:05:34.468Z,1011.24
2022-12-06T00:06:34.439Z,1011.23
2022-12-06T00:07:34.468Z,1011.26
2022-12-06T00:08:34.378Z,1011.24
2022-12-06T00:09:34.349Z,1011.23
2022-12-06T00:10:34.321Z,1011.25
2022-12-06T00:11:34.288Z,1011.21
2022-12-06T00:12:34.260Z,1011.20
2022-12-06T00:13:34.247Z,1011.23
2022-12-06T00:14:34.207Z,1011.19
2022-12-06T00:15:34.169Z,1011.21
2022-12-06T00:16:34.264Z,1011.20
2022-12-06T00:17:37.597Z,1011.21
2022-12-06T00:18:34.080Z,1011.20
2022-12-06T00:19:34.053Z,1011.21
2022-12-06T00:20:34.019Z,1011.25
2022-12-06T00:21:33.989Z,1011.27
2022-12-06T00:22:33.963Z,1011.23
2022-12-06T00:23:33.931Z,1011.25
2022-12-06T00:24:33.902Z,1011.27
2022-12-06T00:25:33.877Z,1011.25
2022-12-06T00:26:33.858Z,1011.26
2022-12-06T00:27:33.820Z,1011.24
2022-12-06T00:28:33.807Z,1011.24
2022-12-06T00:29:33.819Z,1011.25
2022-12-06T00:30:33.735Z,1011.22
2022-12-06T00:31:33.772Z,1011.26
2022-12-06T00:32:33.665Z,1011.26
2022-12-06T00:33:33.633Z,1011.26
2022-12-06T00:34:33.608Z,1011.23
2022-12-06T00:35:33.573Z,1011.26
2022-12-06T00:36:33.545Z,1011.26
2022-12-06T00:37:33.513Z,1011.25
2022-12-06T00:38:33.485Z,1011.23
2022-12-06T00:39:33.455Z,1011.23
2022-12-06T00:40:33.426Z,1011.22
2022-12-06T00:41:33.395Z,1011.22
2022-12-06T00:42:33.370Z,1011.21
2022-12-06T00:43:33.335Z,1011.22
2022-12-06T00:44:33.308Z,1011.22
2022-12-06T00:45:33.335Z,1011.22
2022-12-06T00:46:33.307Z,1011.22
2022-12-06T00:47:33.217Z,1011.22
2022-12-06T00:48:33.186Z,1011.26
2022-12-06T00:49:33.159Z,1011.22
2022-12-06T00:50:33.130Z,1011.29
2022-12-06T00:51:33.097Z,1011.29
2022-12-06T00:52:33.073Z,1011.31
2022-12-06T00:53:33.039Z,1011.25
2022-12-06T00:54:33.010Z,1011.28
2022-12-06T00:55:32.979Z,1011.29
2022-12-06T00:56:32.952Z,1011.28
2022-12-06T00:57:32.925Z,1011.25
2022-12-06T00:58:32.894Z,1011.29
2022-12-06T00:59:32.861Z,1011.26
2022-12-06T01:00:32.834Z,1011.28
2022-12-06T01:01:32.971Z,1011.24
2022-12-06T01:02:32.772Z,1011.26
2022-12-06T01:03:35.203Z,1011.27
2022-12-06T01:04:32.713Z,1011.24
2022-12-06T01:05:32.681Z,1011.23
2022-12-06T01:06:32.658Z,1011.24
2022-12-06T01:07:32.673Z,1011.20
2022-12-06T01:08:32.595Z,1011.21
2022-12-06T01:09:32.566Z,1011.20
2022-12-06T01:10:32.535Z,1011.18
2022-12-06T01:11:32.505Z,1011.18
2022-12-06T01:12:32.475Z,1011.21
2022-12-06T01:13:32.443Z,1011.22
2022-12-06T01:14:32.417Z,1011.20
2022-12-06T01:15:32.385Z,1011.25
2022-12-06T01:16:32.467Z,1011.23
2022-12-06T01:17:32.347Z,1011.23
2022-12-06T01:18:32.299Z,1011.25
2022-12-06T01:19:32.270Z,1011.21
2022-12-06T01:20:32.239Z,1011.19
2022-12-06T01:21:32.210Z,1011.21
2022-12-06T01:22:32.179Z,1011.18
2022-12-06T01:23:32.154Z,1011.22
2022-12-06T01:24:32.119Z,1011.17
2022-12-06T01:25:35.820Z,1011.21
2022-12-06T01:26:32.059Z,1011.21
2022-12-06T01:27:32.038Z,1011.20
2022-12-06T01:28:32.017Z,1011.22
2022-12-06T01:29:31.970Z,1011.23
2022-12-06T01:30:31.975Z,1011.24
2022-12-06T01:31:37.766Z,1011.27
2022-12-06T01:32:31.882Z,1011.26
2022-12-06T01:33:31.870Z,1011.28
2022-12-06T01:34:31.821Z,1011.27
2022-12-06T01:35:31.796Z,1011.27
2022-12-06T01:36:31.764Z,1011.32
2022-12-06T01:37:31.732Z,1011.32
2022-12-06T01:38:31.703Z,1011.32
2022-12-06T01:39:31.678Z,1011.30
2022-12-06T01:40:31.641Z,1011.32
2022-12-06T01:41:31.618Z,1011.35
2022-12-06T01:42:31.583Z,1011.34
2022-12-06T01:43:31.554Z,1011.33
2022-12-06T01:44:31.526Z,1011.33
2022-12-06T01:45:31.498Z,1011.33
2022-12-06T01:46:31.533Z,1011.29
2022-12-06T01:47:31.438Z,1011.28
2022-12-06T01:48:31.408Z,1011.27
2022-12-06T01:49:31.395Z,1011.26
2022-12-06T01:50:31.346Z,1011.21
2022-12-06T01:51:31.319Z,1011.24
2022-12-06T01:52:31.290Z,1011.22
2022-12-06T01:53:31.261Z,1011.21
2022-12-06T01:54:31.231Z,1011.22
2022-12-06T01:55:31.203Z,1011.21
2022-12-06T01:56:31.171Z,1011.21
2022-12-06T01:57:31.141Z,1011.15
2022-12-06T01:58:31.111Z,1011.17
2022-12-06T01:59:31.083Z,1011.16
2022-12-06T02:00:31.052Z,1011.16
2022-12-06T02:01:31.088Z,1011.18
2022-12-06T02:02:31.076Z,1011.20
2022-12-06T02:03:30.964Z,1011.23
2022-12-06T02:04:30.941Z,1011.16
2022-12-06T02:05:33.842Z,1011.19
2022-12-06T02:06:30.882Z,1011.19
2022-12-06T02:07:30.848Z,1011.14
2022-12-06T02:08:30.820Z,1011.15
2022-12-06T02:09:30.786Z,1011.12
2022-12-06T02:10:30.757Z,1011.11
2022-12-06T02:11:34.986Z,1011.12
2022-12-06T02:12:30.698Z,1011.13
2022-12-06T02:13:30.671Z,1011.12
2022-12-06T02:14:30.638Z,1011.13
2022-12-06T02:15:30.610Z,1011.10
2022-12-06T02:16:30.673Z,1011.08
2022-12-06T02:17:30.550Z,1011.06
2022-12-06T02:18:30.519Z,1011.05
2022-12-06T02:19:30.497Z,1011.05
2022-12-06T02:20:30.460Z,1011.03
2022-12-06T02:21:30.448Z,1011.03
2022-12-06T02:22:30.404Z,1011.04
2022-12-06T02:23:30.375Z,1011.04
2022-12-06T02:24:30.344Z,1011.05
2022-12-06T02:25:33.853Z,1011.02
2022-12-06T02:26:30.283Z,1011.02
2022-12-06T02:27:30.254Z,1011.01
2022-12-06T02:28:30.234Z,1010.98
2022-12-06T02:29:30.206Z,1010.97
2022-12-06T02:30:30.249Z,1010.95
2022-12-06T02:31:30.276Z,1010.97
2022-12-06T02:32:30.105Z,1010.97
2022-12-06T02:33:30.077Z,1010.94
2022-12-06T02:34:30.048Z,1010.90
2022-12-06T02:35:30.022Z,1010.89
2022-12-06T02:36:29.992Z,1010.90
2022-12-06T02:37:29.980Z,1010.89
2022-12-06T02:38:29.930Z,1010.88
2022-12-06T02:39:29.903Z,1010.86
2022-12-06T02:40:29.873Z,1010.88
2022-12-06T02:41:29.843Z,1010.88
2022-12-06T02:42:29.813Z,1010.88
2022-12-06T02:43:29.784Z,1010.93
2022-12-06T02:44:29.754Z,1010.89
2022-12-06T02:45:29.725Z,1010.87
2022-12-06T02:46:29.874Z,1010.88
2022-12-06T02:47:29.669Z,1010.86
2022-12-06T02:48:29.638Z,1010.87
2022-12-06T02:49:29.606Z,1010.86
2022-12-06T02:50:29.579Z,1010.85
2022-12-06T02:51:29.554Z,1010.86
2022-12-06T02:52:29.518Z,1010.87
2022-12-06T02:53:29.512Z,1010.83
2022-12-06T02:54:29.457Z,1010.88
2022-12-06T02:55:29.432Z,1010.86
2022-12-06T02:56:29.402Z,1010.86
2022-12-06T02:57:29.372Z,1010.85
2022-12-06T02:58:29.342Z,1010.86
2022-12-06T02:59:29.314Z,1010.84
2022-12-06T03:00:29.287Z,1010.87
2022-12-06T03:01:29.312Z,1010.84
2022-12-06T03:02:29.280Z,1010.83
2022-12-06T03:03:29.197Z,1010.81
2022-12-06T03:04:29.167Z,1010.87
2022-12-06T03:05:29.141Z,1010.84
2022-12-06T03:06:29.106Z,1010.90
2022-12-06T03:07:29.080Z,1010.88
2022-12-06T03:08:29.051Z,1010.91
2022-12-06T03:09:29.045Z,1010.89
2022-12-06T03:10:28.992Z,1010.90
2022-12-06T03:11:28.962Z,1010.90
2022-12-06T03:12:28.931Z,1010.91
2022-12-06T03:13:28.901Z,1010.89
2022-12-06T03:14:28.868Z,1010.89
2022-12-06T03:15:28.899Z,1010.88
2022-12-06T03:16:28.814Z,1010.91
2022-12-06T03:17:28.786Z,1010.89
2022-12-06T03:18:28.754Z,1010.92
2022-12-06T03:19:28.726Z,1010.95
2022-12-06T03:20:28.694Z,1010.88
2022-12-06T03:21:28.664Z,1010.90
2022-12-06T03:22:28.636Z,1010.92
2022-12-06T03:23:28.607Z,1010.91
2022-12-06T03:24:28.578Z,1010.87
2022-12-06T03:25:28.566Z,1010.90
2022-12-06T03:26:28.522Z,1010.92
2022-12-06T03:27:28.491Z,1010.94
2022-12-06T03:28:28.456Z,1010.92
2022-12-06T03:29:28.427Z,1010.94
2022-12-06T03:30:28.412Z,1010.88
2022-12-06T03:31:28.474Z,1010.97
2022-12-06T03:32:28.341Z,1010.96
2022-12-06T03:33:28.312Z,1010.92
2022-12-06T03:34:28.282Z,1010.93
2022-12-06T03:35:28.255Z,1010.93
2022-12-06T03:36:28.224Z,1010.95
2022-12-06T03:37:28.194Z,1010.97
2022-12-06T03:38:28.163Z,1010.95
2022-12-06T03:39:28.140Z,1010.98
2022-12-06T03:40:28.102Z,1010.95
2022-12-06T03:41:28.091Z,1010.94
2022-12-06T03:42:28.047Z,1010.93
2022-12-06T03:43:28.016Z,1010.91
2022-12-06T03:44:27.984Z,1010.85
2022-12-06T03:45:28.026Z,1010.89
2022-12-06T03:46:28.228Z,1010.87
2022-12-06T03:47:27.898Z,1010.81
2022-12-06T03:48:27.871Z,1010.84
2022-12-06T03:49:27.842Z,1010.80
2022-12-06T03:50:27.807Z,1010.80
2022-12-06T03:51:27.781Z,1010.81
2022-12-06T03:52:27.749Z,1010.78
2022-12-06T03:53:27.723Z,1010.74
2022-12-06T03:54:27.690Z,1010.77
2022-12-06T03:55:27.662Z,1010.76
2022-12-06T03:56:27.629Z,1010.75
2022-12-06T03:57:27.625Z,1010.77
2022-12-06T03:58:27.573Z,1010.76
2022-12-06T03:59:27.545Z,1010.73
2022-12-06T04:00:27.515Z,1010.74
2022-12-06T04:01:27.520Z,1010.73
2022-12-06T04:02:27.454Z,1010.73
2022-12-06T04:03:27.476Z,1010.77
2022-12-06T04:04:27.394Z,1010.73
2022-12-06T04:05:27.370Z,1010.75
2022-12-06T04:06:27.336Z,1010.76
2022-12-06T04:07:27.311Z,1010.73
2022-12-06T04:08:27.276Z,1010.73
2022-12-06T04:09:27.249Z,1010.73
2022-12-06T04:10:27.236Z,1010.74
2022-12-06T04:11:27.190Z,1010.70
2022-12-06T04:12:27.159Z,1010.77
2022-12-06T04:13:27.150Z,1010.78
2022-12-06T04:14:27.099Z,1010.73
2022-12-06T04:15:27.077Z,1010.75
2022-12-06T04:16:27.099Z,1010.76
2022-12-06T04:17:27.013Z,1010.75
2022-12-06T04:18:26.980Z,1010.74
2022-12-06T04:19:26.952Z,1010.74
2022-12-06T04:20:26.923Z,1010.73
2022-12-06T04:21:26.895Z,1010.75
2022-12-06T04:22:26.864Z,1010.71
2022-12-06T04:23:26.838Z,1010.73
2022-12-06T04:24:26.808Z,1010.75
2022-12-06T04:25:26.777Z,1010.75
2022-12-06T04:26:26.746Z,1010.73
2022-12-06T04:27:26.725Z,1010.78
2022-12-06T04:28:26.689Z,1010.77
2022-12-06T04:29:26.678Z,1010.79
2022-12-06T04:30:26.629Z,1010.74
2022-12-06T04:31:26.635Z,1010.81
2022-12-06T04:32:26.571Z,1010.78
2022-12-06T04:33:26.543Z,1010.77
2022-12-06T04:34:26.519Z,1010.78
2022-12-06T04:35:26.484Z,1010.80
2022-12-06T04:36:26.454Z,1010.79
2022-12-06T04:37:26.424Z,1010.76
2022-12-06T04:38:26.395Z,1010.76
2022-12-06T04:39:26.367Z,1010.73
2022-12-06T04:40:26.338Z,1010.70
2022-12-06T04:41:26.311Z,1010.72
2022-12-06T04:42:26.276Z,1010.73
2022-12-06T04:43:26.251Z,1010.68
2022-12-06T04:44:26.218Z,1010.73
2022-12-06T04:45:26.209Z,1010.68
2022-12-06T04:46:26.205Z,1010.79
2022-12-06T04:47:26.133Z,1010.76
2022-12-06T04:48:26.102Z,1010.76
2022-12-06T04:49:26.075Z,1010.73
2022-12-06T04:50:26.045Z,1010.73
2022-12-06T04:51:26.014Z,1010.71
2022-12-06T04:52:25.983Z,1010.73
2022-12-06T04:53:25.956Z,1010.72
2022-12-06T04:54:25.926Z,1010.72
2022-12-06T04:55:25.903Z,1010.70
2022-12-06T04:56:25.865Z,1010.72
2022-12-06T04:57:25.837Z,1010.68
2022-12-06T04:58:25.808Z,1010.73
2022-12-06T04:59:25.779Z,1010.71
2022-12-06T05:00:25.815Z,1010.69
2022-12-06T05:01:25.741Z,1010.66
2022-12-06T05:02:25.700Z,1010.67
2022-12-06T05:03:25.713Z,1010.64
2022-12-06T05:04:25.720Z,1010.61
2022-12-06T05:05:25.606Z,1010.65
2022-12-06T05:06:25.575Z,1010.64
2022-12-06T05:07:25.549Z,1010.65
2022-12-06T05:08:25.519Z,1010.67
2022-12-06T05:09:25.505Z,1010.64
2022-12-06T05:10:25.469Z,1010.66
2022-12-06T05:11:25.429Z,1010.65
2022-12-06T05:12:25.400Z,1010.66
2022-12-06T05:13:25.369Z,1010.66
2022-12-06T05:14:25.341Z,1010.63
2022-12-06T05:15:29.022Z,1010.65
2022-12-06T05:16:25.424Z,1010.62
2022-12-06T05:17:25.311Z,1010.63
2022-12-06T05:18:25.224Z,1010.63
2022-12-06T05:19:25.193Z,1010.63
2022-12-06T05:20:25.163Z,1010.63
2022-12-06T05:21:25.136Z,1010.59
2022-12-06T05:22:25.106Z,1010.61
2022-12-06T05:23:25.080Z,1010.56
2022-12-06T05:24:25.047Z,1010.58
2022-12-06T05:25:25.016Z,1010.55
2022-12-06T05:26:24.992Z,1010.56
2022-12-06T05:27:24.960Z,1010.59
2022-12-06T05:28:24.929Z,1010.62
2022-12-06T05:29:24.901Z,1010.60
2022-12-06T05:30:24.871Z,1010.62
2022-12-06T05:31:24.921Z,1010.66
2022-12-06T05:32:24.819Z,1010.60
2022-12-06T05:33:24.800Z,1010.61
2022-12-06T05:34:24.755Z,1010.62
2022-12-06T05:35:24.724Z,1010.60
2022-12-06T05:36:24.699Z,1010.62
2022-12-06T05:37:24.666Z,1010.59
2022-12-06T05:38:24.637Z,1010.63
2022-12-06T05:39:24.609Z,1010.61
2022-12-06T05:40:24.581Z,1010.64
2022-12-06T05:41:24.550Z,1010.65
2022-12-06T05:42:24.523Z,1010.60
2022-12-06T05:43:24.493Z,1010.63
2022-12-06T05:44:24.462Z,1010.58
2022-12-06T05:45:24.435Z,1010.55
2022-12-06T05:46:24.465Z,1010.58
2022-12-06T05:47:24.375Z,1010.55
2022-12-06T05:48:24.346Z,1010.55
2022-12-06T05:49:24.331Z,1010.53
2022-12-06T05:50:24.286Z,1010.53
2022-12-06T05:51:24.264Z,1010.47
2022-12-06T05:52:24.228Z,1010.48
2022-12-06T05:53:24.204Z,1010.47
2022-12-06T05:54:24.173Z,1010.47
2022-12-06T05:55:24.138Z,1010.47
2022-12-06T05:56:24.113Z,1010.49
2022-12-06T05:57:24.082Z,1010.50
2022-12-06T05:58:24.084Z,1010.48
2022-12-06T05:59:24.028Z,1010.47
2022-12-06T06:00:23.996Z,1010.50
2022-12-06T06:01:23.971Z,1010.49
2022-12-06T06:02:24.089Z,1010.50
2022-12-06T06:03:23.955Z,1010.53
2022-12-06T06:04:23.880Z,1010.51
2022-12-06T06:05:23.866Z,1010.53
2022-12-06T06:06:23.820Z,1010.51
2022-12-06T06:07:23.790Z,1010.54
2022-12-06T06:08:23.877Z,1010.52
2022-12-06T06:09:23.731Z,1010.52
2022-12-06T06:10:23.702Z,1010.51
2022-12-06T06:11:23.674Z,1010.52
2022-12-06T06:12:23.645Z,1010.51
2022-12-06T06:13:23.613Z,1010.47
2022-12-06T06:14:23.603Z,1010.51
2022-12-06T06:15:23.557Z,1010.49
2022-12-06T06:16:23.593Z,1010.49
2022-12-06T06:17:23.497Z,1010.47
2022-12-06T06:18:23.471Z,1010.48
2022-12-06T06:19:23.439Z,1010.50
2022-12-06T06:20:23.413Z,1010.49
2022-12-06T06:21:23.397Z,1010.52
2022-12-06T06:22:23.353Z,1010.49
2022-12-06T06:23:23.322Z,1010.52
2022-12-06T06:24:23.295Z,1010.53
2022-12-06T06:25:23.265Z,1010.53
2022-12-06T06:26:23.238Z,1010.53
2022-12-06T06:27:23.211Z,1010.55
2022-12-06T06:28:23.178Z,1010.57
2022-12-06T06:29:23.260Z,1010.57
2022-12-06T06:30:23.123Z,1010.53
2022-12-06T06:31:23.143Z,1010.57
2022-12-06T06:32:23.062Z,1010.58
2022-12-06T06:33:23.027Z,1010.59
2022-12-06T06:34:23.007Z,1010.60
2022-12-06T06:35:22.970Z,1010.60
2022-12-06T06:36:22.946Z,1010.60
2022-12-06T06:37:22.930Z,1010.56
2022-12-06T06:38:22.883Z,1010.62
2022-12-06T06:39:22.865Z,1010.60
2022-12-06T06:40:22.826Z,1010.60
2022-12-06T06:41:22.792Z,1010.60
2022-12-06T06:42:22.770Z,1010.62
2022-12-06T06:43:22.733Z,1010.56
2022-12-06T06:44:22.710Z,1010.59
2022-12-06T06:45:33.485Z,1010.59
2022-12-06T06:46:22.738Z,1010.58
2022-12-06T06:47:22.618Z,1010.60
2022-12-06T06:48:22.590Z,1010.60
2022-12-06T06:49:22.559Z,1010.60
2022-12-06T06:50:22.530Z,1010.62
2022-12-06T06:51:22.502Z,1010.59
2022-12-06T06:52:22.472Z,1010.58
2022-12-06T06:53:22.461Z,1010.62
2022-12-06T06:54:22.419Z,1010.60
2022-12-06T06:55:22.384Z,1010.63
2022-12-06T06:56:22.357Z,1010.67
2022-12-06T06:57:22.330Z,1010.64
2022-12-06T06:58:22.296Z,1010.65
2022-12-06T06:59:22.274Z,1010.67
2022-12-06T07:00:22.240Z,1010.65
2022-12-06T07:01:22.324Z,1010.64
2022-12-06T07:02:22.218Z,1010.65
2022-12-06T07:03:22.147Z,1010.65
2022-12-06T07:04:22.120Z,1010.63
2022-12-06T07:05:22.089Z,1010.61
2022-12-06T07:06:22.063Z,1010.60
2022-12-06T07:07:22.030Z,1010.63
2022-12-06T07:08:22.127Z,1010.57
2022-12-06T07:09:21.992Z,1010.60
2022-12-06T07:10:21.944Z,1010.62
2022-12-06T07:11:21.915Z,1010.61
2022-12-06T07:12:21.891Z,1010.59
2022-12-06T07:13:21.864Z,1010.62
2022-12-06T07:14:21.828Z,1010.63
2022-12-06T07:15:21.798Z,1010.66
2022-12-06T07:16:21.886Z,1010.63
2022-12-06T07:17:21.738Z,1010.66
2022-12-06T07:18:21.709Z,1010.68
2022-12-06T07:19:21.685Z,1010.69
2022-12-06T07:20:21.655Z,1010.69
2022-12-06T07:21:21.675Z,1010.68
2022-12-06T07:22:21.592Z,1010.71
2022-12-06T07:23:21.566Z,1010.72
2022-12-06T07:24:21.535Z,1010.67
2022-12-06T07:25:21.537Z,1010.68
2022-12-06T07:26:21.473Z,1010.71
2022-12-06T07:27:21.445Z,1010.69
2022-12-06T07:28:21.415Z,1010.74
2022-12-06T07:29:21.385Z,1010.67
2022-12-06T07:30:27.027Z,1010.68
2022-12-06T07:31:21.411Z,1010.67
2022-12-06T07:32:21.301Z,1010.72
2022-12-06T07:33:21.301Z,1010.70
2022-12-06T07:34:21.240Z,1010.71
2022-12-06T07:35:21.209Z,1010.70
2022-12-06T07:36:21.186Z,1010.71
2022-12-06T07:37:21.151Z,1010.66
2022-12-06T07:38:21.127Z,1010.70
2022-12-06T07:39:21.092Z,1010.74
2022-12-06T07:40:41.219Z,1010.73
2022-12-06T07:41:21.090Z,1010.77
2022-12-06T07:42:21.004Z,1010.78
2022-12-06T07:43:20.972Z,1010.77
2022-12-06T07:44:20.954Z,1010.79
2022-12-06T07:45:20.912Z,1010.81
2022-12-06T07:46:20.944Z,1010.88
2022-12-06T07:47:20.856Z,1010.85
2022-12-06T07:48:20.830Z,1010.86
2022-12-06T07:49:20.795Z,1010.92
2022-12-06T07:50:20.769Z,1010.87
2022-12-06T07:51:20.734Z,1010.88
2022-12-06T07:52:20.717Z,1010.90
2022-12-06T07:53:20.676Z,1010.91
2022-12-06T07:54:20.648Z,1010.92
2022-12-06T07:55:20.617Z,1010.94
2022-12-06T07:56:20.591Z,1010.89
2022-12-06T07:57:20.577Z,1010.89
2022-12-06T07:58:20.530Z,1010.93
2022-12-06T07:59:20.509Z,1010.91
2022-12-06T08:00:20.473Z,1010.93
2022-12-06T08:01:20.534Z,1010.90
2022-12-06T08:02:20.454Z,1010.96
2022-12-06T08:03:20.457Z,1010.92
2022-12-06T08:04:20.454Z,1010.92
2022-12-06T08:05:20.384Z,1010.94
2022-12-06T08:06:20.352Z,1010.92
2022-12-06T08:07:20.281Z,1010.90
2022-12-06T08:08:25.145Z,1010.92
2022-12-06T08:09:20.291Z,1010.93
2022-12-06T08:10:20.247Z,1010.95
2022-12-06T08:11:20.202Z,1010.92
2022-12-06T08:12:20.180Z,1010.95
2022-12-06T08:13:20.162Z,1010.98
2022-12-06T08:14:20.100Z,1010.92
2022-12-06T08:15:20.177Z,1010.93
2022-12-06T08:16:20.171Z,1010.97
2022-12-06T08:17:20.080Z,1010.96
2022-12-06T08:18:20.060Z,1010.96
2022-12-06T08:19:20.026Z,1010.97
2022-12-06T08:20:19.933Z,1010.99
2022-12-06T08:21:19.878Z,1010.98
2022-12-06T08:22:19.877Z,1011.03
2022-12-06T08:23:19.866Z,1011.05
2022-12-06T08:24:19.862Z,1011.02
2022-12-06T08:25:19.813Z,1011.04
2022-12-06T08:26:19.811Z,1011.05
2022-12-06T08:27:19.751Z,1011.05
2022-12-06T08:28:19.722Z,1011.06
2022-12-06T08:29:19.671Z,1011.04
2022-12-06T08:30:19.634Z,1011.05
2022-12-06T08:31:19.694Z,1011.06
2022-12-06T08:32:19.581Z,1011.07
2022-12-06T08:33:19.566Z,1011.10
2022-12-06T08:34:19.524Z,1011.04
2022-12-06T08:35:19.551Z,1011.08
2022-12-06T08:36:19.420Z,1011.05
2022-12-06T08:37:19.378Z,1011.09
2022-12-06T08:38:19.349Z,1011.08
2022-12-06T08:39:19.322Z,1011.08
2022-12-06T08:40:19.292Z,1011.09
2022-12-06T08:41:19.261Z,1011.04
2022-12-06T08:42:24.909Z,1011.05
2022-12-06T08:43:19.208Z,1011.04
2022-12-06T08:44:19.204Z,1011.05
2022-12-06T08:45:19.158Z,1011.07
2022-12-06T08:46:19.176Z,1011.07
2022-12-06T08:47:19.081Z,1011.12
2022-12-06T08:48:19.067Z,1011.12
2022-12-06T08:49:19.031Z,1011.09
2022-12-06T08:50:19.013Z,1011.07
2022-12-06T08:51:18.980Z,1011.12
2022-12-06T08:52:18.948Z,1011.11
2022-12-06T08:53:18.906Z,1011.14
2022-12-06T08:54:18.879Z,1011.18
2022-12-06T08:55:18.877Z,1011.15
2022-12-06T08:56:18.823Z,1011.17
2022-12-06T08:57:18.785Z,1011.17
2022-12-06T08:58:18.763Z,1011.14
2022-12-06T08:59:18.733Z,1011.17
2022-12-06T09:00:18.700Z,1011.17
2022-12-06T09:01:18.726Z,1011.16
2022-12-06T09:02:18.716Z,1011.20
2022-12-06T09:03:18.609Z,1011.19
2022-12-06T09:04:19.067Z,1011.15
2022-12-06T09:05:18.556Z,1011.17
2022-12-06T09:06:18.568Z,1011.19
2022-12-06T09:07:18.495Z,1011.18
2022-12-06T09:08:18.662Z,1011.19
2022-12-06T09:09:18.434Z,1011.19
2022-12-06T09:10:18.408Z,1011.16
2022-12-06T09:11:18.377Z,1011.17
2022-12-06T09:12:18.398Z,1011.20
2022-12-06T09:13:18.317Z,1011.22
2022-12-06T09:14:21.952Z,1011.17
2022-12-06T09:15:18.257Z,1011.17
2022-12-06T09:16:18.389Z,1011.15
2022-12-06T09:17:18.218Z,1011.19
2022-12-06T09:18:18.171Z,1011.18
2022-12-06T09:19:18.139Z,1011.16
2022-12-06T09:20:18.144Z,1011.17
2022-12-06T09:21:18.083Z,1011.18
2022-12-06T09:22:18.055Z,1011.18
2022-12-06T09:23:18.105Z,1011.14
2022-12-06T09:24:17.998Z,1011.13
2022-12-06T09:25:17.966Z,1011.18
2022-12-06T09:26:17.938Z,1011.20
2022-12-06T09:27:17.905Z,1011.16
2022-12-06T09:28:17.914Z,1011.17
2022-12-06T09:29:17.849Z,1011.20
2022-12-06T09:30:17.819Z,1011.20
2022-12-06T09:31:17.944Z,1011.21
2022-12-06T09:32:17.790Z,1011.22
2022-12-06T09:33:17.779Z,1011.20
2022-12-06T09:34:17.780Z,1011.23
2022-12-06T09:35:22.156Z,1011.23
2022-12-06T09:36:17.702Z,1011.24
2022-12-06T09:37:17.674Z,1011.23
2022-12-06T09:38:17.680Z,1011.26
2022-12-06T09:39:17.644Z,1011.18
2022-12-06T09:40:17.603Z,1011.22
2022-12-06T09:41:17.550Z,1011.26
2022-12-06T09:42:17.994Z,1011.27
2022-12-06T09:43:17.512Z,1011.24
2022-12-06T09:44:17.484Z,1011.24
2022-12-06T09:45:17.378Z,1011.24
2022-12-06T09:46:17.376Z,1011.23
2022-12-06T09:47:17.319Z,1011.26
2022-12-06T09:48:17.388Z,1011.33
2022-12-06T09:49:17.304Z,1011.27
2022-12-06T09:50:17.228Z,1011.34
2022-12-06T09:51:17.203Z,1011.33
2022-12-06T09:52:17.170Z,1011.27
2022-12-06T09:53:17.286Z,1011.27
2022-12-06T09:54:17.113Z,1011.22
2022-12-06T09:55:17.083Z,1011.27
2022-12-06T09:56:17.052Z,1011.24
2022-12-06T09:57:17.025Z,1011.25
2022-12-06T09:58:16.995Z,1011.25
2022-12-06T09:59:17.011Z,1011.23
2022-12-06T10:00:22.285Z,1011.23
2022-12-06T10:01:16.927Z,1011.25
2022-12-06T10:02:17.046Z,1011.22
2022-12-06T10:03:16.905Z,1011.27
2022-12-06T10:04:16.823Z,1011.27
2022-12-06T10:05:16.811Z,1011.23
2022-12-06T10:06:16.768Z,1011.24
2022-12-06T10:07:16.732Z,1011.19
2022-12-06T10:08:16.806Z,1011.18
2022-12-06T10:09:16.765Z,1011.16
2022-12-06T10:10:16.644Z,1011.16
2022-12-06T10:11:16.615Z,1011.14
2022-12-06T10:12:16.698Z,1011.14
2022-12-06T10:13:16.555Z,1011.08
2022-12-06T10:14:16.525Z,1011.05
2022-12-06T10:15:16.503Z,1011.01
2022-12-06T10:16:16.580Z,1011.02
2022-12-06T10:17:16.439Z,1010.99
2022-12-06T10:18:16.409Z,1010.99
2022-12-06T10:19:16.415Z,1010.95
2022-12-06T10:20:16.354Z,1011.00
2022-12-06T10:21:16.363Z,1010.97
2022-12-06T10:22:16.295Z,1010.97
2022-12-06T10:23:16.265Z,1010.96
2022-12-06T10:24:16.236Z,1010.95
2022-12-06T10:25:16.208Z,1010.92
2022-12-06T10:26:16.176Z,1010.97
2022-12-06T10:27:16.147Z,1010.97
2022-12-06T10:28:16.120Z,1011.00
2022-12-06T10:29:16.088Z,1010.99
2022-12-06T10:30:16.059Z,1010.97
2022-12-06T10:31:16.110Z,1010.96
2022-12-06T10:32:16.023Z,1010.94
2022-12-06T10:33:15.975Z,1010.96
2022-12-06T10:34:15.946Z,1010.96
2022-12-06T10:35:15.920Z,1010.95
2022-12-06T10:36:15.886Z,1010.95
2022-12-06T10:37:15.875Z,1010.92
2022-12-06T10:38:15.826Z,1010.92
2022-12-06T10:39:15.853Z,1010.92
2022-12-06T10:40:15.769Z,1010.88
2022-12-06T10:41:15.740Z,1010.89
2022-12-06T10:42:15.711Z,1010.91
2022-12-06T10:43:15.685Z,1010.91
2022-12-06T10:44:15.657Z,1010.88
2022-12-06T10:45:17.430Z,1010.88
2022-12-06T10:46:15.688Z,1010.88
2022-12-06T10:47:15.659Z,1010.91
2022-12-06T10:48:15.538Z,1010.86
2022-12-06T10:49:15.508Z,1010.86
2022-12-06T10:50:15.480Z,1010.85
2022-12-06T10:51:15.505Z,1010.86
2022-12-06T10:52:15.424Z,1010.88
2022-12-06T10:53:15.419Z,1010.85
2022-12-06T10:54:15.365Z,1010.88
2022-12-06T10:55:15.348Z,1010.88
2022-12-06T10:56:15.311Z,1010.82
2022-12-06T10:57:15.300Z,1010.87
2022-12-06T10:58:15.261Z,1010.83
2022-12-06T10:59:15.222Z,1010.77
2022-12-06T11:00:16.286Z,1010.80
2022-12-06T11:01:15.284Z,1010.75
2022-12-06T11:02:15.244Z,1010.76
2022-12-06T11:03:15.134Z,1010.73
2022-12-06T11:04:15.076Z,1010.76
2022-12-06T11:05:15.046Z,1010.75
2022-12-06T11:06:15.014Z,1010.74
2022-12-06T11:07:14.988Z,1010.71
2022-12-06T11:08:15.021Z,1010.77
2022-12-06T11:09:14.949Z,1010.72
2022-12-06T11:10:14.900Z,1010.76
2022-12-06T11:11:14.873Z,1010.78
2022-12-06T11:12:14.840Z,1010.76
2022-12-06T11:13:14.814Z,1010.76
2022-12-06T11:14:14.781Z,1010.74
2022-12-06T11:15:14.762Z,1010.73
2022-12-06T11:16:14.762Z,1010.70
2022-12-06T11:17:14.697Z,1010.72
2022-12-06T11:18:14.673Z,1010.69
2022-12-06T11:19:14.638Z,1010.75
2022-12-06T11:20:14.611Z,1010.73
2022-12-06T11:21:14.579Z,1010.73
2022-12-06T11:22:14.549Z,1010.77
2022-12-06T11:23:14.522Z,1010.74
2022-12-06T11:24:14.493Z,1010.78
2022-12-06T11:25:14.484Z,1010.74
2022-12-06T11:26:14.432Z,1010.76
2022-12-06T11:27:14.405Z,1010.77
2022-12-06T11:28:14.376Z,1010.79
2022-12-06T11:29:14.351Z,1010.76
2022-12-06T11:30:19.562Z,1010.73
2022-12-06T11:31:14.346Z,1010.72
2022-12-06T11:32:14.256Z,1010.70
2022-12-06T11:33:14.231Z,1010.70
2022-12-06T11:34:14.212Z,1010.66
2022-12-06T11:35:14.203Z,1010.67
2022-12-06T11:36:14.149Z,1010.69
2022-12-06T11:37:14.180Z,1010.70
2022-12-06T11:38:14.108Z,1010.71
2022-12-06T11:39:14.065Z,1010.67
2022-12-06T11:40:14.130Z,1010.72
2022-12-06T11:41:14.035Z,1010.69
2022-12-06T11:42:13.974Z,1010.62
2022-12-06T11:43:13.941Z,1010.64
2022-12-06T11:44:13.917Z,1010.62
2022-12-06T11:45:13.932Z,1010.62
2022-12-06T11:46:13.982Z,1010.62
2022-12-06T11:47:13.894Z,1010.63
2022-12-06T11:48:13.803Z,1010.60
2022-12-06T11:49:13.777Z,1010.56
2022-12-06T11:50:16.896Z,1010.56
2022-12-06T11:51:13.706Z,1010.59
2022-12-06T11:52:13.676Z,1010.62
2022-12-06T11:53:13.644Z,1010.57
2022-12-06T11:54:13.641Z,1010.58
2022-12-06T11:55:13.608Z,1010.64
2022-12-06T11:56:13.569Z,1010.61
2022-12-06T11:57:17.928Z,1010.65
2022-12-06T11:58:13.512Z,1010.65
2022-12-06T11:59:13.486Z,1010.69
2022-12-06T12:00:13.450Z,1010.64
2022-12-06T12:01:13.468Z,1010.64
2022-12-06T12:02:19.359Z,1010.61
2022-12-06T12:03:13.404Z,1010.63
2022-12-06T12:04:13.343Z,1010.63
2022-12-06T12:05:13.310Z,1010.61